Pasadena Hills, Missouri
Current Conditions -  °F | °C
As of 3:51 AM on Saturday 22 Nov 2014 (Local Time) from KSTL Reporting Station
Broken Clouds Broken Clouds  
Wind Chill: 42°   Ceiling: 6000
Heat Index: 45°   Visibility: 10mi
Dew Point: 37°   Wind: 6mph
Humidity: 74%   Direction: 180°S
Pressure: 30.14"   Gusts: NA
Location:  38.7055°N, 90.3021°W
Report Text: KSTL 220951Z 18005KT 10SM SCT049 BKN060 BKN080 07/03 A3014 RMK AO2 SLP210 T00720028
Loading
Personal Weather Stations






























Interactive Weather Map New forecast layout! Learn more

10-Day Weather Forecast

Advertisements
Track Severe Weather on mobile